createdAt,value
2019-05-26T00:02:38.035Z,93.90
2019-05-26T00:05:32.564Z,93.70
2019-05-26T00:08:20.279Z,94.10
2019-05-26T00:11:02.677Z,93.90
2019-05-26T00:13:51.979Z,93.50
2019-05-26T00:16:33.923Z,93.90
2019-05-26T00:19:30.119Z,94.40
2019-05-26T00:22:25.449Z,94.20
2019-05-26T00:25:21.476Z,94.20
2019-05-26T00:28:16.897Z,94.70
2019-05-26T00:31:12.403Z,94.30
2019-05-26T00:34:01.427Z,94.40
2019-05-26T00:36:36.912Z,95.20
2019-05-26T00:39:26.022Z,95.10
2019-05-26T00:42:09.126Z,95.00
2019-05-26T00:45:05.036Z,94.90
2019-05-26T00:47:54.298Z,94.80
2019-05-26T00:50:29.770Z,94.90
2019-05-26T00:53:19.720Z,95.40
2019-05-26T00:56:01.407Z,94.90
2019-05-26T00:58:43.711Z,95.30
2019-05-26T01:01:26.102Z,95.40
2019-05-26T01:04:08.298Z,95.40
2019-05-26T01:06:57.271Z,95.20
2019-05-26T01:09:33.227Z,95.10
2019-05-26T01:12:21.972Z,95.20
2019-05-26T01:14:57.638Z,95.00
2019-05-26T01:17:46.206Z,95.10
2019-05-26T01:20:28.066Z,95.40
2019-05-26T01:23:09.834Z,95.30
2019-05-26T01:25:51.967Z,95.10
2019-05-26T01:28:33.547Z,95.10
2019-05-26T01:31:15.983Z,95.40
2019-05-26T01:33:57.406Z,95.30
2019-05-26T01:36:40.467Z,95.50
2019-05-26T01:39:23.656Z,95.60
2019-05-26T01:42:06.441Z,95.40
2019-05-26T01:44:54.854Z,95.50
2019-05-26T01:47:30.578Z,95.50
2019-05-26T01:50:19.034Z,95.40
2019-05-26T01:52:54.442Z,95.00
2019-05-26T01:55:43.070Z,94.90
2019-05-26T01:58:38.075Z,95.00
2019-05-26T02:01:33.214Z,94.70
2019-05-26T02:04:28.729Z,94.90
2019-05-26T02:07:17.439Z,94.60
2019-05-26T02:09:53.629Z,94.50
2019-05-26T02:12:42.611Z,94.40
2019-05-26T02:15:25.810Z,94.30
2019-05-26T02:18:21.239Z,94.40
2019-05-26T02:21:16.433Z,94.40
2019-05-26T02:24:05.461Z,94.30
2019-05-26T02:26:48.313Z,94.80
2019-05-26T02:29:43.979Z,94.90
2019-05-26T02:32:39.471Z,94.60
2019-05-26T02:35:29.649Z,94.60
2019-05-26T02:38:12.565Z,94.90
2019-05-26T02:40:54.628Z,95.00
2019-05-26T02:43:36.930Z,95.10
2019-05-26T02:46:19.283Z,95.20
2019-05-26T02:49:00.865Z,95.00
2019-05-26T02:51:43.017Z,94.80
2019-05-26T02:54:31.976Z,94.90
2019-05-26T02:57:27.497Z,94.80
2019-05-26T03:00:16.773Z,94.80
2019-05-26T03:02:59.632Z,94.80
2019-05-26T03:05:55.088Z,95.00
2019-05-26T03:08:50.557Z,94.80
2019-05-26T03:11:47.947Z,94.90
2019-05-26T03:14:44.959Z,95.00
2019-05-26T03:17:34.508Z,94.30
2019-05-26T03:20:11.146Z,94.30
2019-05-26T03:23:02.158Z,94.70
2019-05-26T03:25:39.146Z,94.50
2019-05-26T03:28:27.876Z,94.60
2019-05-26T03:31:11.166Z,94.50
2019-05-26T03:34:07.617Z,94.90
2019-05-26T03:36:57.657Z,95.20
2019-05-26T03:39:44.642Z,94.90
2019-05-26T03:42:22.303Z,95.00
2019-05-26T03:44:57.742Z,94.60
2019-05-26T03:47:47.713Z,94.30
2019-05-26T03:50:23.890Z,94.80
2019-05-26T03:53:12.761Z,94.40
2019-05-26T03:55:55.307Z,94.70
2019-05-26T03:58:50.973Z,94.80
2019-05-26T04:01:47.135Z,94.60
2019-05-26T04:04:42.591Z,94.90
2019-05-26T04:07:32.815Z,94.50
2019-05-26T04:10:09.586Z,94.90
2019-05-26T04:12:58.338Z,94.90
2019-05-26T04:15:41.094Z,95.00
2019-05-26T04:18:29.586Z,94.50
2019-05-26T04:21:05.506Z,94.60
2019-05-26T04:23:54.479Z,94.60
2019-05-26T04:26:30.672Z,94.60
2019-05-26T04:29:19.519Z,95.30
2019-05-26T04:31:55.339Z,94.90
2019-05-26T04:34:43.928Z,94.90
2019-05-26T04:37:26.489Z,95.40
2019-05-26T04:40:25.573Z,95.50
2019-05-26T04:43:00.002Z,95.70
2019-05-26T04:45:36.175Z,95.70
2019-05-26T04:48:24.568Z,95.70
2019-05-26T04:51:00.211Z,96.00
2019-05-26T04:53:49.995Z,95.80
2019-05-26T04:56:31.950Z,95.80
2019-05-26T04:59:20.773Z,95.80
2019-05-26T05:02:17.444Z,95.50
2019-05-26T05:05:06.106Z,94.90
2019-05-26T05:07:41.791Z,94.90
2019-05-26T05:10:41.857Z,95.10
2019-05-26T05:13:14.186Z,95.30
2019-05-26T05:16:10.159Z,95.40
2019-05-26T05:19:05.258Z,95.60
2019-05-26T05:21:53.677Z,95.60
2019-05-26T05:24:29.361Z,95.50
2019-05-26T05:27:18.255Z,95.70
2019-05-26T05:30:00.872Z,95.80
2019-05-26T05:32:49.148Z,95.80
2019-05-26T05:35:33.193Z,95.60
2019-05-26T05:38:29.171Z,95.80
2019-05-26T05:41:18.249Z,96.10
2019-05-26T05:43:53.469Z,95.80
2019-05-26T05:46:42.461Z,95.50
2019-05-26T05:49:18.231Z,95.10
2019-05-26T05:52:06.648Z,95.00
2019-05-26T05:54:42.034Z,94.90
2019-05-26T05:57:30.642Z,95.10
2019-05-26T06:00:13.584Z,95.00
2019-05-26T06:03:02.718Z,95.20
2019-05-26T06:05:44.994Z,94.10
2019-05-26T06:08:33.756Z,94.60
2019-05-26T06:11:17.394Z,94.40
2019-05-26T06:14:05.642Z,94.70
2019-05-26T06:16:48.206Z,94.70
2019-05-26T06:19:37.490Z,94.40
2019-05-26T06:22:19.587Z,93.80
2019-05-26T06:25:14.995Z,94.00
2019-05-26T06:28:17.317Z,94.50
2019-05-26T06:31:06.473Z,93.50
2019-05-26T06:33:48.903Z,92.80
2019-05-26T06:36:31.503Z,92.40
2019-05-26T06:39:20.891Z,93.20
2019-05-26T06:41:57.182Z,92.60
2019-05-26T06:44:53.599Z,92.60
2019-05-26T06:47:29.695Z,93.70
2019-05-26T06:50:12.689Z,94.10
2019-05-26T06:52:54.780Z,93.90
2019-05-26T06:55:37.009Z,94.00
2019-05-26T06:58:18.907Z,93.50
2019-05-26T07:01:01.506Z,93.90
2019-05-26T07:03:43.926Z,92.10
2019-05-26T07:06:25.611Z,92.20
2019-05-26T07:09:07.902Z,91.60
2019-05-26T07:12:00.172Z,91.30
2019-05-26T07:14:33.554Z,92.20
2019-05-26T07:17:21.849Z,89.90
2019-05-26T07:19:57.228Z,91.10
2019-05-26T07:22:46.028Z,90.90
2019-05-26T07:25:27.944Z,90.30
2019-05-26T07:28:16.949Z,90.00
2019-05-26T07:31:01.010Z,88.40
2019-05-26T07:33:42.741Z,90.30
2019-05-26T07:36:25.243Z,90.00
2019-05-26T07:39:07.042Z,87.40
2019-05-26T07:42:08.213Z,87.40
2019-05-26T07:44:33.762Z,86.80
2019-05-26T07:47:23.134Z,86.20
2019-05-26T07:49:58.749Z,87.60
2019-05-26T07:52:47.794Z,86.20
2019-05-26T07:55:23.290Z,81.60
2019-05-26T07:58:12.701Z,81.30
2019-05-26T08:00:48.321Z,81.90
2019-05-26T08:03:37.526Z,81.20
2019-05-26T08:06:14.682Z,78.50
2019-05-26T08:09:03.593Z,75.90
2019-05-26T08:11:39.398Z,75.40
2019-05-26T08:14:28.749Z,76.30
2019-05-26T08:17:04.166Z,74.40
2019-05-26T08:19:53.449Z,74.70
2019-05-26T08:22:36.277Z,74.40
2019-05-26T08:25:32.344Z,74.70
2019-05-26T08:28:26.959Z,74.60
2019-05-26T08:31:08.197Z,74.20
2019-05-26T08:33:57.033Z,76.50
2019-05-26T08:36:33.150Z,73.70
2019-05-26T08:39:21.914Z,74.10
2019-05-26T08:41:57.144Z,74.20
2019-05-26T08:44:45.571Z,73.80
2019-05-26T08:47:20.788Z,72.20
2019-05-26T08:50:09.012Z,71.30
2019-05-26T08:52:44.227Z,70.80
2019-05-26T08:55:32.774Z,70.50
2019-05-26T08:58:08.375Z,69.00
2019-05-26T09:00:56.888Z,67.50
2019-05-26T09:03:55.306Z,66.70
2019-05-26T09:06:44.162Z,66.40
2019-05-26T09:09:19.714Z,63.90
2019-05-26T09:12:08.794Z,63.90
2019-05-26T09:14:50.950Z,65.80
2019-05-26T09:17:40.319Z,62.80
2019-05-26T09:20:23.045Z,61.80
2019-05-26T09:23:11.299Z,61.70
2019-05-26T09:25:46.850Z,62.40
2019-05-26T09:28:42.364Z,61.30
2019-05-26T09:31:34.152Z,60.50
2019-05-26T09:34:08.825Z,59.50
2019-05-26T09:36:58.858Z,58.40
2019-05-26T09:39:36.143Z,57.90
2019-05-26T09:42:24.926Z,57.60
2019-05-26T09:45:02.227Z,57.30
2019-05-26T09:47:50.166Z,57.00
2019-05-26T09:50:32.079Z,58.30
2019-05-26T09:53:16.296Z,57.80
2019-05-26T09:56:00.402Z,59.10
2019-05-26T09:58:35.988Z,59.40
2019-05-26T10:01:25.600Z,57.70
2019-05-26T10:04:07.906Z,57.50
2019-05-26T10:06:53.376Z,57.90
2019-05-26T10:09:38.778Z,59.20
2019-05-26T10:12:20.956Z,60.80
2019-05-26T10:15:02.790Z,58.10
2019-05-26T10:17:44.987Z,58.00
2019-05-26T10:20:27.850Z,57.00
2019-05-26T10:23:10.370Z,57.80
2019-05-26T10:25:58.710Z,59.20
2019-05-26T10:28:47.945Z,58.00
2019-05-26T10:31:45.150Z,57.90
2019-05-26T10:34:27.040Z,59.40
2019-05-26T10:37:15.514Z,57.40
2019-05-26T10:39:52.362Z,59.00
2019-05-26T10:42:40.794Z,58.40
2019-05-26T10:45:17.702Z,58.60
2019-05-26T10:48:06.544Z,60.70
2019-05-26T10:50:42.405Z,57.80
2019-05-26T10:53:30.954Z,58.00
2019-05-26T10:56:07.258Z,57.60
2019-05-26T10:58:55.857Z,58.50
2019-05-26T11:01:32.353Z,59.90
2019-05-26T11:04:20.618Z,59.40
2019-05-26T11:07:15.361Z,59.10
2019-05-26T11:10:04.843Z,59.00
2019-05-26T11:12:47.205Z,59.40
2019-05-26T11:15:43.489Z,59.60
2019-05-26T11:18:38.356Z,59.00
2019-05-26T11:21:26.487Z,59.10
2019-05-26T11:24:01.823Z,59.80
2019-05-26T11:26:51.167Z,58.00
2019-05-26T11:29:33.537Z,57.20
2019-05-26T11:32:29.857Z,57.60
2019-05-26T11:35:21.104Z,57.90
2019-05-26T11:37:56.581Z,58.00
2019-05-26T11:40:46.419Z,59.00
2019-05-26T11:43:28.429Z,57.70
2019-05-26T11:46:17.379Z,56.60
2019-05-26T11:49:12.993Z,57.20
2019-05-26T11:52:02.127Z,57.50
2019-05-26T11:54:44.954Z,58.20
2019-05-26T11:57:40.155Z,58.10
2019-05-26T12:00:30.575Z,56.40
2019-05-26T12:03:13.569Z,56.20
2019-05-26T12:06:09.781Z,56.10
2019-05-26T12:09:05.277Z,57.50
2019-05-26T12:11:55.784Z,58.30
2019-05-26T12:14:34.814Z,58.90
2019-05-26T12:17:34.415Z,57.10
2019-05-26T12:20:30.589Z,58.90
2019-05-26T12:23:20.670Z,57.50
2019-05-26T12:25:56.567Z,58.10
2019-05-26T12:28:45.754Z,58.70
2019-05-26T12:31:22.877Z,58.80
2019-05-26T12:34:12.205Z,57.30
2019-05-26T12:37:00.434Z,57.60
2019-05-26T12:39:55.933Z,58.90
2019-05-26T12:42:45.938Z,60.20
2019-05-26T12:45:22.467Z,61.00
2019-05-26T12:48:11.558Z,61.20
2019-05-26T12:50:47.239Z,59.00
2019-05-26T12:53:36.275Z,60.60
2019-05-26T12:56:11.779Z,59.10
2019-05-26T12:58:53.885Z,58.70
2019-05-26T13:01:37.416Z,59.20
2019-05-26T13:04:19.399Z,58.70
2019-05-26T13:07:14.587Z,58.80
2019-05-26T13:10:09.730Z,57.30
2019-05-26T13:12:57.778Z,57.80
2019-05-26T13:15:33.147Z,58.20
2019-05-26T13:18:29.531Z,57.90
2019-05-26T13:21:12.252Z,59.20
2019-05-26T13:24:01.198Z,58.70
2019-05-26T13:26:36.599Z,58.40
2019-05-26T13:29:26.386Z,57.40
2019-05-26T13:32:08.924Z,57.30
2019-05-26T13:34:51.585Z,56.20
2019-05-26T13:37:47.820Z,57.20
2019-05-26T13:40:37.313Z,57.50
2019-05-26T13:43:13.062Z,57.40
2019-05-26T13:46:02.297Z,57.90
2019-05-26T13:48:38.384Z,57.30
2019-05-26T13:51:26.921Z,57.60
2019-05-26T13:54:10.006Z,57.80
2019-05-26T13:57:05.196Z,57.40
2019-05-26T13:59:53.034Z,58.10
2019-05-26T14:02:28.878Z,56.90
2019-05-26T14:05:18.456Z,57.80
2019-05-26T14:07:53.682Z,57.90
2019-05-26T14:10:43.762Z,57.90
2019-05-26T14:13:19.700Z,57.20
2019-05-26T14:16:09.950Z,57.10
2019-05-26T14:18:48.036Z,57.60
2019-05-26T14:21:37.329Z,58.90
2019-05-26T14:24:13.594Z,57.80
2019-05-26T14:27:01.763Z,57.00
2019-05-26T14:29:37.993Z,56.80
2019-05-26T14:32:27.004Z,56.00
2019-05-26T14:35:09.811Z,57.40
2019-05-26T14:37:52.084Z,57.00
2019-05-26T14:40:40.921Z,55.30
2019-05-26T14:43:23.399Z,56.70
2019-05-26T14:46:05.613Z,56.50
2019-05-26T14:48:47.006Z,57.70
2019-05-26T14:51:30.415Z,56.70
2019-05-26T14:54:12.562Z,53.80
2019-05-26T14:56:55.579Z,55.00
2019-05-26T14:59:37.931Z,52.70
2019-05-26T15:02:19.789Z,54.40
2019-05-26T15:05:01.998Z,53.70
2019-05-26T15:07:51.098Z,54.50
2019-05-26T15:10:26.747Z,56.70
2019-05-26T15:13:15.313Z,57.50
2019-05-26T15:15:51.229Z,58.10
2019-05-26T15:18:40.021Z,57.50
2019-05-26T15:21:22.343Z,58.70
2019-05-26T15:24:11.448Z,59.70
2019-05-26T15:26:54.391Z,58.40
2019-05-26T15:29:36.837Z,57.70
2019-05-26T15:32:19.071Z,57.10
2019-05-26T15:35:07.438Z,57.20
2019-05-26T15:37:43.582Z,57.40
2019-05-26T15:40:32.392Z,57.50
2019-05-26T15:43:11.165Z,58.30
2019-05-26T15:46:00.966Z,57.90
2019-05-26T15:48:42.623Z,58.60
2019-05-26T15:51:31.554Z,57.60
2019-05-26T15:54:07.589Z,57.00
2019-05-26T15:56:56.268Z,57.80
2019-05-26T15:59:31.958Z,57.70
2019-05-26T16:02:20.459Z,58.10
2019-05-26T16:04:58.828Z,58.70
2019-05-26T16:07:52.929Z,57.40
2019-05-26T16:10:48.471Z,57.10
2019-05-26T16:13:36.597Z,57.30
2019-05-26T16:16:18.983Z,57.60
2019-05-26T16:19:15.186Z,57.40
2019-05-26T16:22:10.615Z,58.30
2019-05-26T16:25:05.257Z,59.10
2019-05-26T16:28:01.850Z,59.80
2019-05-26T16:30:50.880Z,59.60
2019-05-26T16:33:39.243Z,59.60
2019-05-26T16:36:28.305Z,59.40
2019-05-26T16:39:04.914Z,59.90
2019-05-26T16:41:53.822Z,60.60
2019-05-26T16:44:30.041Z,61.40
2019-05-26T16:47:21.383Z,59.80
2019-05-26T16:50:04.219Z,59.60
2019-05-26T16:52:58.942Z,59.30
2019-05-26T16:55:55.954Z,58.90
2019-05-26T16:58:51.920Z,59.10
2019-05-26T17:01:41.956Z,57.90
2019-05-26T17:04:17.681Z,57.50
2019-05-26T17:07:06.189Z,57.50
2019-05-26T17:09:41.526Z,57.40
2019-05-26T17:12:30.407Z,57.00
2019-05-26T17:15:12.766Z,57.90
2019-05-26T17:18:07.894Z,59.30
2019-05-26T17:21:04.011Z,59.40
2019-05-26T17:23:59.932Z,59.10
2019-05-26T17:26:47.797Z,58.90
2019-05-26T17:29:23.262Z,60.30
2019-05-26T17:32:11.564Z,59.30
2019-05-26T17:34:55.544Z,60.20
2019-05-26T17:37:44.413Z,61.10
2019-05-26T17:40:20.068Z,62.20
2019-05-26T17:43:08.859Z,63.40
2019-05-26T17:45:51.026Z,64.40
2019-05-26T17:48:39.950Z,63.80
2019-05-26T17:51:28.627Z,63.40
2019-05-26T17:54:23.607Z,63.40
2019-05-26T17:57:18.775Z,62.40
2019-05-26T18:00:07.409Z,62.50
2019-05-26T18:02:43.430Z,61.90
2019-05-26T18:05:33.046Z,61.80
2019-05-26T18:08:09.069Z,61.60
2019-05-26T18:10:57.800Z,61.70
2019-05-26T18:13:39.424Z,61.60
2019-05-26T18:16:24.469Z,61.70
2019-05-26T18:19:06.818Z,61.00
2019-05-26T18:21:49.076Z,62.40
2019-05-26T18:24:55.081Z,63.00
2019-05-26T18:27:33.263Z,63.90
2019-05-26T18:30:10.859Z,64.10
2019-05-26T18:32:59.630Z,64.60
2019-05-26T18:35:41.816Z,64.50
2019-05-26T18:38:38.555Z,64.90
2019-05-26T18:41:27.260Z,64.70
2019-05-26T18:44:02.950Z,64.50
2019-05-26T18:46:53.509Z,64.80
2019-05-26T18:49:35.331Z,65.20
2019-05-26T18:52:31.596Z,66.10
2019-05-26T18:55:14.909Z,66.50
2019-05-26T18:58:04.054Z,66.20
2019-05-26T19:00:39.845Z,66.40
2019-05-26T19:03:28.100Z,67.30
2019-05-26T19:06:10.137Z,66.80
2019-05-26T19:08:58.423Z,67.40
2019-05-26T19:11:40.707Z,68.00
2019-05-26T19:14:23.008Z,68.70
2019-05-26T19:17:05.512Z,68.50
2019-05-26T19:19:48.349Z,68.90
2019-05-26T19:22:30.477Z,69.10
2019-05-26T19:25:25.605Z,69.30
2019-05-26T19:28:21.839Z,69.20
2019-05-26T19:31:16.300Z,69.70
2019-05-26T19:34:12.266Z,70.10
2019-05-26T19:37:08.821Z,70.30
2019-05-26T19:39:58.178Z,70.90
2019-05-26T19:42:41.190Z,70.60
2019-05-26T19:45:36.629Z,70.40
2019-05-26T19:48:35.653Z,70.30
2019-05-26T19:51:03.171Z,70.50
2019-05-26T19:53:51.614Z,70.60
2019-05-26T19:56:33.738Z,71.10
2019-05-26T19:59:30.072Z,71.00
2019-05-26T20:02:25.162Z,71.70
2019-05-26T20:05:21.906Z,71.70
2019-05-26T20:08:18.412Z,71.50
2019-05-26T20:11:06.944Z,71.40
2019-05-26T20:13:43.249Z,71.90
2019-05-26T20:16:31.295Z,71.70
2019-05-26T20:19:07.608Z,71.40
2019-05-26T20:21:56.673Z,71.50
2019-05-26T20:24:38.819Z,71.00
2019-05-26T20:27:35.123Z,71.20
2019-05-26T20:30:30.111Z,71.60
2019-05-26T20:33:26.617Z,71.30
2019-05-26T20:36:22.543Z,70.80
2019-05-26T20:39:20.427Z,70.30
2019-05-26T20:42:10.084Z,70.20
2019-05-26T20:44:59.248Z,69.20
2019-05-26T20:47:35.081Z,68.90
2019-05-26T20:50:30.604Z,68.60
2019-05-26T20:53:26.867Z,68.40
2019-05-26T20:56:22.714Z,68.30
2019-05-26T20:59:03.950Z,66.90
2019-05-26T21:01:53.019Z,66.50
2019-05-26T21:04:48.399Z,66.90
2019-05-26T21:07:44.024Z,67.00
2019-05-26T21:10:33.136Z,66.50
2019-05-26T21:13:08.404Z,66.30
2019-05-26T21:15:57.079Z,65.90
2019-05-26T21:18:39.839Z,65.70
2019-05-26T21:21:34.560Z,65.70
2019-05-26T21:24:29.733Z,66.10
2019-05-26T21:27:26.062Z,65.70
2019-05-26T21:30:14.477Z,66.30
2019-05-26T21:32:50.586Z,66.30
2019-05-26T21:35:39.651Z,66.20
2019-05-26T21:38:15.809Z,66.60
2019-05-26T21:41:05.682Z,66.50
2019-05-26T21:43:41.424Z,66.40
2019-05-26T21:46:30.719Z,66.70
2019-05-26T21:49:06.529Z,66.00
2019-05-26T21:51:55.589Z,65.40
2019-05-26T21:54:41.083Z,65.80
2019-05-26T21:57:28.062Z,65.20
2019-05-26T22:00:09.907Z,65.70
2019-05-26T22:03:07.301Z,66.10
2019-05-26T22:05:56.063Z,66.30
2019-05-26T22:08:31.897Z,66.40
2019-05-26T22:11:20.421Z,66.30
2019-05-26T22:13:59.192Z,66.30
2019-05-26T22:16:48.196Z,67.00
2019-05-26T22:19:23.716Z,66.40
2019-05-26T22:22:12.152Z,66.70
2019-05-26T22:24:48.318Z,67.40
2019-05-26T22:27:36.490Z,67.50
2019-05-26T22:30:21.874Z,68.10
2019-05-26T22:33:16.621Z,67.40
2019-05-26T22:36:11.769Z,67.60
2019-05-26T22:39:06.813Z,68.50
2019-05-26T22:42:02.648Z,69.40
2019-05-26T22:44:51.128Z,70.80
2019-05-26T22:47:33.287Z,71.10
2019-05-26T22:50:15.466Z,71.70
2019-05-26T22:53:04.754Z,72.00
2019-05-26T22:55:40.718Z,72.50
2019-05-26T22:58:29.246Z,72.90
2019-05-26T23:01:11.372Z,73.20
2019-05-26T23:03:53.942Z,73.10
2019-05-26T23:06:37.018Z,73.50
2019-05-26T23:09:25.583Z,73.50
2019-05-26T23:12:06.998Z,73.80
2019-05-26T23:14:55.544Z,74.00
2019-05-26T23:17:30.921Z,74.00
2019-05-26T23:20:19.820Z,74.10
2019-05-26T23:23:02.043Z,74.50
2019-05-26T23:25:51.252Z,74.60
2019-05-26T23:28:39.609Z,74.90
2019-05-26T23:31:28.172Z,75.30
2019-05-26T23:34:10.562Z,75.80
2019-05-26T23:36:53.554Z,76.40
2019-05-26T23:39:49.100Z,76.80
2019-05-26T23:42:36.938Z,77.00
2019-05-26T23:45:13.077Z,77.50
2019-05-26T23:48:02.108Z,78.00
2019-05-26T23:50:38.066Z,78.60
2019-05-26T23:53:27.096Z,79.80
2019-05-26T23:56:02.647Z,80.90
2019-05-26T23:58:51.501Z,81.20
